Terminal Aerodrome Forecast
Issued by NWS Upton, NY

Home | Current Version | Previous Version | Text Only | Print | Product List | Glossary On
Versions: 1 2 3 4 5 6 7 8 9 10 11 12 13 14 15 16 17 18 19 20 21 22 23 24 25 26 27 28
000
FTUS41 KOKX 221400 AAA
TAFLGA
TAF AMD
KLGA 221432Z 2215/2312 02017G25KT 6SM SHRA BR BKN025 BKN040
     FM230000 36020G29KT 4SM -RA BR BKN015
     FM230600 35015G23KT 4SM -RA BR BKN010=

USA.gov is the U.S. government's official web portal to all federal, state and local government web resources and services.